createdAt,value
2023-04-27T00:00:28.656Z,11.90
2023-04-27T00:02:57.580Z,11.87
2023-04-27T00:05:27.729Z,11.89
2023-04-27T00:07:55.942Z,11.88
2023-04-27T00:10:24.091Z,11.86
2023-04-27T00:12:52.259Z,11.84
2023-04-27T00:15:20.803Z,11.83
2023-04-27T00:17:48.947Z,11.82
2023-04-27T00:20:17.247Z,11.86
2023-04-27T00:22:47.063Z,11.83
2023-04-27T00:25:15.282Z,11.84
2023-04-27T00:27:43.405Z,11.79
2023-04-27T00:30:13.459Z,11.84
2023-04-27T00:32:42.440Z,11.79
2023-04-27T00:35:11.611Z,11.72
2023-04-27T00:37:39.815Z,11.69
2023-04-27T00:40:10.399Z,11.70
2023-04-27T00:42:38.767Z,11.69
2023-04-27T00:45:10.681Z,11.63
2023-04-27T00:47:39.226Z,11.55
2023-04-27T00:50:08.804Z,11.53
2023-04-27T00:52:37.983Z,11.42
2023-04-27T00:55:07.328Z,11.34
2023-04-27T00:57:36.864Z,11.30
2023-04-27T01:00:07.157Z,11.25
2023-04-27T01:02:37.080Z,11.20
2023-04-27T01:05:05.833Z,11.12
2023-04-27T01:07:34.087Z,11.06
2023-04-27T01:10:02.186Z,11.06
2023-04-27T01:12:30.783Z,11.05
2023-04-27T01:15:00.457Z,11.02
2023-04-27T01:17:28.550Z,11.06
2023-04-27T01:19:56.901Z,11.08
2023-04-27T01:22:25.134Z,11.16
2023-04-27T01:24:54.933Z,11.21
2023-04-27T01:27:23.061Z,11.20
2023-04-27T01:29:51.263Z,11.27
2023-04-27T01:32:19.465Z,11.25
2023-04-27T01:34:47.723Z,11.23
2023-04-27T01:37:15.941Z,11.28
2023-04-27T01:39:45.528Z,11.31
2023-04-27T01:42:15.135Z,11.28
2023-04-27T01:44:43.336Z,11.23
2023-04-27T01:47:11.354Z,11.20
2023-04-27T01:49:39.578Z,11.14
2023-04-27T01:52:08.024Z,11.16
2023-04-27T01:54:36.453Z,11.08
2023-04-27T01:57:04.802Z,11.12
2023-04-27T01:59:34.436Z,11.07
2023-04-27T02:02:02.812Z,11.10
2023-04-27T02:04:31.216Z,11.16
2023-04-27T02:07:00.521Z,11.11
2023-04-27T02:09:28.979Z,11.06
2023-04-27T02:11:57.122Z,11.10
2023-04-27T02:14:25.254Z,11.14
2023-04-27T02:16:54.824Z,11.11
2023-04-27T02:19:23.156Z,11.09
2023-04-27T02:21:51.398Z,11.02
2023-04-27T02:24:19.613Z,10.94
2023-04-27T02:26:47.684Z,11.04
2023-04-27T02:29:17.065Z,11.06
2023-04-27T02:31:46.597Z,11.04
2023-04-27T02:34:16.096Z,11.01
2023-04-27T02:36:44.239Z,11.02
2023-04-27T02:39:12.953Z,10.99
2023-04-27T02:41:41.188Z,11.02
2023-04-27T02:44:09.355Z,11.07
2023-04-27T02:46:37.693Z,11.05
2023-04-27T02:49:06.192Z,11.06
2023-04-27T02:51:35.707Z,11.06
2023-04-27T02:54:04.483Z,10.99
2023-04-27T02:56:32.681Z,11.02
2023-04-27T02:59:01.221Z,10.98
2023-04-27T03:01:29.296Z,10.97
2023-04-27T03:03:57.656Z,11.02
2023-04-27T03:06:25.901Z,11.00
2023-04-27T03:08:55.380Z,10.98
2023-04-27T03:11:23.536Z,10.95
2023-04-27T03:13:51.759Z,10.93
2023-04-27T03:16:20.010Z,10.94
2023-04-27T03:18:48.220Z,10.94
2023-04-27T03:21:17.834Z,10.92
2023-04-27T03:23:46.097Z,10.95
2023-04-27T03:26:16.488Z,10.92
2023-04-27T03:28:45.500Z,10.92
2023-04-27T03:31:15.905Z,10.89
2023-04-27T03:33:44.068Z,10.83
2023-04-27T03:36:12.602Z,10.91
2023-04-27T03:38:40.747Z,10.90
2023-04-27T03:41:08.835Z,10.92
2023-04-27T03:43:38.388Z,10.91
2023-04-27T03:46:06.630Z,10.88
2023-04-27T03:48:34.757Z,10.92
2023-04-27T03:51:03.586Z,10.90
2023-04-27T03:53:32.036Z,10.88
2023-04-27T03:56:00.890Z,10.84
2023-04-27T03:58:28.879Z,10.87
2023-04-27T04:00:58.898Z,10.95
2023-04-27T04:03:27.115Z,11.01
2023-04-27T04:05:55.319Z,11.05
2023-04-27T04:08:23.507Z,11.09
2023-04-27T04:10:51.566Z,11.14
2023-04-27T04:13:20.060Z,11.23
2023-04-27T04:15:48.232Z,11.26
2023-04-27T04:18:18.036Z,11.30
2023-04-27T04:20:46.507Z,11.29
2023-04-27T04:23:14.577Z,11.31
2023-04-27T04:25:43.512Z,11.43
2023-04-27T04:28:11.511Z,11.45
2023-04-27T04:30:39.756Z,11.42
2023-04-27T04:33:09.044Z,11.49
2023-04-27T04:35:41.594Z,11.50
2023-04-27T04:38:09.778Z,11.42
2023-04-27T04:40:40.063Z,11.42
2023-04-27T04:43:08.203Z,11.44
2023-04-27T04:45:36.756Z,11.43
2023-04-27T04:48:05.284Z,11.37
2023-04-27T04:50:33.671Z,11.35
2023-04-27T04:53:03.183Z,11.42
2023-04-27T04:55:31.527Z,11.47
2023-04-27T04:57:59.621Z,11.56
2023-04-27T05:00:27.964Z,11.61
2023-04-27T05:02:56.305Z,11.63
2023-04-27T05:05:24.670Z,11.60
2023-04-27T05:07:52.777Z,11.51
2023-04-27T05:10:22.324Z,11.51
2023-04-27T05:12:50.385Z,11.50
2023-04-27T05:15:18.448Z,11.60
2023-04-27T05:17:46.742Z,11.65
2023-04-27T05:20:15.953Z,11.69
2023-04-27T05:22:44.203Z,11.68
2023-04-27T05:25:12.605Z,11.72
2023-04-27T05:27:42.862Z,11.84
2023-04-27T05:30:12.011Z,11.75
2023-04-27T05:32:40.318Z,11.61
2023-04-27T05:35:09.081Z,11.70
2023-04-27T05:37:37.278Z,11.72
2023-04-27T05:40:06.136Z,11.81
2023-04-27T05:42:34.431Z,11.84
2023-04-27T05:45:04.294Z,11.80
2023-04-27T05:47:32.438Z,11.86
2023-04-27T05:50:00.571Z,11.93
2023-04-27T05:52:31.123Z,11.92
2023-04-27T05:55:00.244Z,11.91
2023-04-27T05:57:28.597Z,11.97
2023-04-27T05:59:56.916Z,12.11
2023-04-27T06:02:26.598Z,12.12
2023-04-27T06:04:55.317Z,12.07
2023-04-27T06:07:23.427Z,11.99
2023-04-27T06:09:51.631Z,12.02
2023-04-27T06:12:19.746Z,11.98
2023-04-27T06:14:47.838Z,11.94
2023-04-27T06:17:16.417Z,11.97
2023-04-27T06:19:46.171Z,11.99
2023-04-27T06:22:14.278Z,12.18
2023-04-27T06:24:42.552Z,12.15
2023-04-27T06:27:10.990Z,12.05
2023-04-27T06:29:39.095Z,12.15
2023-04-27T06:32:07.487Z,12.27
2023-04-27T06:34:36.157Z,12.34
2023-04-27T06:37:05.557Z,12.40
2023-04-27T06:39:33.625Z,12.47
2023-04-27T06:42:01.783Z,12.36
2023-04-27T06:44:29.986Z,12.40
2023-04-27T06:46:58.303Z,12.46
2023-04-27T06:49:26.829Z,12.53
2023-04-27T06:51:54.943Z,12.55
2023-04-27T06:54:24.686Z,12.53
2023-04-27T06:56:54.740Z,12.72
2023-04-27T06:59:22.912Z,12.85
2023-04-27T07:01:51.927Z,12.94
2023-04-27T07:04:20.648Z,13.03
2023-04-27T07:06:48.972Z,13.07
2023-04-27T07:09:27.038Z,13.20
2023-04-27T07:11:59.234Z,13.23
2023-04-27T07:14:27.460Z,13.24
2023-04-27T07:16:56.572Z,13.27
2023-04-27T07:19:24.782Z,13.50
2023-04-27T07:21:53.636Z,13.68
2023-04-27T07:24:21.905Z,13.81
2023-04-27T07:26:50.092Z,13.89
2023-04-27T07:29:26.911Z,14.13
2023-04-27T07:31:56.159Z,14.07
2023-04-27T07:34:24.421Z,14.18
2023-04-27T07:36:54.471Z,14.27
2023-04-27T07:39:22.990Z,14.50
2023-04-27T07:41:51.832Z,14.57
2023-04-27T07:44:21.735Z,14.77
2023-04-27T07:46:50.333Z,14.75
2023-04-27T07:49:18.463Z,14.85
2023-04-27T07:51:46.585Z,14.90
2023-04-27T07:54:14.796Z,15.13
2023-04-27T07:56:44.220Z,15.03
2023-04-27T07:59:12.944Z,14.82
2023-04-27T08:01:42.572Z,14.77
2023-04-27T08:04:12.950Z,14.72
2023-04-27T08:06:41.554Z,14.86
2023-04-27T08:09:10.326Z,15.11
2023-04-27T08:11:38.687Z,15.15
2023-04-27T08:14:09.113Z,15.40
2023-04-27T08:16:37.279Z,15.49
2023-04-27T08:19:06.889Z,15.55
2023-04-27T08:21:35.078Z,15.80
2023-04-27T08:24:03.390Z,16.08
2023-04-27T08:26:31.640Z,16.25
2023-04-27T08:28:59.984Z,16.22
2023-04-27T08:31:29.247Z,16.18
2023-04-27T08:33:59.037Z,16.10
2023-04-27T08:36:29.238Z,16.02
2023-04-27T08:38:57.393Z,16.32
2023-04-27T08:41:26.100Z,16.66
2023-04-27T08:43:54.504Z,16.76
2023-04-27T08:46:23.249Z,16.83
2023-04-27T08:48:52.457Z,16.89
2023-04-27T08:51:21.228Z,17.00
2023-04-27T08:53:52.405Z,17.25
2023-04-27T08:56:20.805Z,17.25
2023-04-27T08:58:48.953Z,17.41
2023-04-27T09:01:17.314Z,17.38
2023-04-27T09:03:46.945Z,17.48
2023-04-27T09:06:16.129Z,17.47
2023-04-27T09:08:45.689Z,17.35
2023-04-27T09:11:15.932Z,17.13
2023-04-27T09:13:45.750Z,17.09
2023-04-27T09:16:15.383Z,17.15
2023-04-27T09:18:44.684Z,17.14
2023-04-27T09:21:23.242Z,17.10
2023-04-27T09:23:51.879Z,17.12
2023-04-27T09:26:26.068Z,17.28
2023-04-27T09:28:57.212Z,17.35
2023-04-27T09:31:33.061Z,17.38
2023-04-27T09:34:01.544Z,17.53
2023-04-27T09:36:32.414Z,17.49
2023-04-27T09:39:04.709Z,17.51
2023-04-27T09:41:34.628Z,17.47
2023-04-27T09:44:03.374Z,17.17
2023-04-27T09:46:34.950Z,17.18
2023-04-27T09:49:06.096Z,17.04
2023-04-27T09:51:35.200Z,16.77
2023-04-27T09:54:06.099Z,16.65
2023-04-27T09:56:47.306Z,16.72
2023-04-27T09:59:43.002Z,16.91
2023-04-27T10:02:24.737Z,16.82
2023-04-27T10:05:18.157Z,16.76
2023-04-27T10:07:47.405Z,17.02
2023-04-27T10:10:19.346Z,17.38
2023-04-27T10:12:59.343Z,17.46
2023-04-27T10:15:29.202Z,17.61
2023-04-27T10:17:59.206Z,17.84
2023-04-27T10:20:31.418Z,17.73
2023-04-27T10:23:00.134Z,17.53
2023-04-27T10:25:29.880Z,17.38
2023-04-27T10:28:02.000Z,17.30
2023-04-27T10:30:33.985Z,17.38
2023-04-27T10:33:08.685Z,17.34
2023-04-27T10:35:38.590Z,17.29
2023-04-27T10:38:08.718Z,17.24
2023-04-27T10:40:37.718Z,17.14
2023-04-27T10:43:14.836Z,16.94
2023-04-27T10:45:44.108Z,16.91
2023-04-27T10:48:16.950Z,17.00
2023-04-27T10:50:46.956Z,16.82
2023-04-27T10:53:16.073Z,16.97
2023-04-27T10:55:45.548Z,17.28
2023-04-27T10:58:15.042Z,17.53
2023-04-27T11:00:44.915Z,17.70
2023-04-27T11:03:17.435Z,17.59
2023-04-27T11:05:48.793Z,17.44
2023-04-27T11:08:18.764Z,17.46
2023-04-27T11:10:50.231Z,17.51
2023-04-27T11:13:22.823Z,17.58
2023-04-27T11:15:52.373Z,17.56
2023-04-27T11:18:24.900Z,17.65
2023-04-27T11:20:54.779Z,17.77
2023-04-27T11:23:28.911Z,17.80
2023-04-27T11:25:57.448Z,17.88
2023-04-27T11:28:27.287Z,17.69
2023-04-27T11:31:00.813Z,17.53
2023-04-27T11:33:29.575Z,17.28
2023-04-27T11:35:58.267Z,17.23
2023-04-27T11:38:27.686Z,17.30
2023-04-27T11:41:03.641Z,17.48
2023-04-27T11:43:33.660Z,17.62
2023-04-27T11:46:08.311Z,17.69
2023-04-27T11:48:38.960Z,17.61
2023-04-27T11:51:07.899Z,17.68
2023-04-27T11:53:37.913Z,17.87
2023-04-27T11:56:10.768Z,17.99
2023-04-27T11:58:42.123Z,18.11
2023-04-27T12:01:12.159Z,18.14
2023-04-27T12:03:40.811Z,18.13
2023-04-27T12:06:27.429Z,18.06
2023-04-27T12:08:58.921Z,18.14
2023-04-27T12:11:30.194Z,18.19
2023-04-27T12:13:59.810Z,18.05
2023-04-27T12:16:28.358Z,18.11
2023-04-27T12:18:56.791Z,18.15
2023-04-27T12:21:25.038Z,18.32
2023-04-27T12:23:53.886Z,18.44
2023-04-27T12:26:23.006Z,18.52
2023-04-27T12:28:51.103Z,18.54
2023-04-27T12:31:27.568Z,18.25
2023-04-27T12:33:55.989Z,18.01
2023-04-27T12:36:24.382Z,18.11
2023-04-27T12:38:53.028Z,18.29
2023-04-27T12:41:21.280Z,18.11
2023-04-27T12:43:49.412Z,17.95
2023-04-27T12:46:19.105Z,17.84
2023-04-27T12:48:48.744Z,17.88
2023-04-27T12:51:20.973Z,17.98
2023-04-27T12:53:49.036Z,18.05
2023-04-27T12:56:17.103Z,17.76
2023-04-27T12:58:45.859Z,17.43
2023-04-27T13:01:15.771Z,17.21
2023-04-27T13:03:44.934Z,16.95
2023-04-27T13:06:15.095Z,16.70
2023-04-27T13:08:43.370Z,16.56
2023-04-27T13:11:11.656Z,16.64
2023-04-27T13:13:40.548Z,16.56
2023-04-27T13:16:08.855Z,16.67
2023-04-27T13:18:37.224Z,16.77
2023-04-27T13:21:07.916Z,16.88
2023-04-27T13:23:37.412Z,16.91
2023-04-27T13:26:07.085Z,17.14
2023-04-27T13:28:35.528Z,16.89
2023-04-27T13:31:04.337Z,16.80
2023-04-27T13:33:34.080Z,16.84
2023-04-27T13:36:03.945Z,16.72
2023-04-27T13:38:32.069Z,16.76
2023-04-27T13:41:01.544Z,16.89
2023-04-27T13:43:29.755Z,16.83
2023-04-27T13:46:00.952Z,16.70
2023-04-27T13:48:30.501Z,16.84
2023-04-27T13:50:59.037Z,16.87
2023-04-27T13:53:27.552Z,17.09
2023-04-27T13:56:04.900Z,17.07
2023-04-27T13:58:34.830Z,17.08
2023-04-27T14:01:03.779Z,16.89
2023-04-27T14:03:32.282Z,16.60
2023-04-27T14:06:01.705Z,16.70
2023-04-27T14:08:29.930Z,16.89
2023-04-27T14:10:58.067Z,16.94
2023-04-27T14:13:26.429Z,16.65
2023-04-27T14:15:56.103Z,16.81
2023-04-27T14:18:31.908Z,16.86
2023-04-27T14:21:01.147Z,16.89
2023-04-27T14:23:29.506Z,16.88
2023-04-27T14:25:57.579Z,16.54
2023-04-27T14:28:26.166Z,16.09
2023-04-27T14:30:58.166Z,16.00
2023-04-27T14:33:27.058Z,16.13
2023-04-27T14:35:56.245Z,16.16
2023-04-27T14:38:24.912Z,16.06
2023-04-27T14:40:53.289Z,15.88
2023-04-27T14:43:22.116Z,15.69
2023-04-27T14:45:55.507Z,15.67
2023-04-27T14:48:28.995Z,15.82
2023-04-27T14:50:57.116Z,15.58
2023-04-27T14:53:29.185Z,15.50
2023-04-27T14:55:57.537Z,15.50
2023-04-27T14:58:25.990Z,15.46
2023-04-27T15:00:54.351Z,15.47
2023-04-27T15:03:23.646Z,15.59
2023-04-27T15:05:54.301Z,15.57
2023-04-27T15:08:22.963Z,15.54
2023-04-27T15:10:54.262Z,15.54
2023-04-27T15:13:23.160Z,15.68
2023-04-27T15:15:56.047Z,15.63
2023-04-27T15:18:25.487Z,15.58
2023-04-27T15:20:56.755Z,15.70
2023-04-27T15:23:26.277Z,15.49
2023-04-27T15:25:59.685Z,15.53
2023-04-27T15:28:28.782Z,15.62
2023-04-27T15:30:57.153Z,15.48
2023-04-27T15:33:27.199Z,15.59
2023-04-27T15:35:57.119Z,15.72
2023-04-27T15:38:25.397Z,15.83
2023-04-27T15:40:54.201Z,15.63
2023-04-27T15:43:22.529Z,15.50
2023-04-27T15:45:51.440Z,15.71
2023-04-27T15:48:19.792Z,15.80
2023-04-27T15:50:48.610Z,15.73
2023-04-27T15:53:18.388Z,15.49
2023-04-27T15:56:05.083Z,15.71
2023-04-27T15:58:33.862Z,15.57
2023-04-27T16:01:02.618Z,15.48
2023-04-27T16:03:31.719Z,15.50
2023-04-27T16:06:00.197Z,15.61
2023-04-27T16:08:30.790Z,15.67
2023-04-27T16:10:58.914Z,15.78
2023-04-27T16:13:28.557Z,15.80
2023-04-27T16:15:57.244Z,15.55
2023-04-27T16:18:26.775Z,15.30
2023-04-27T16:20:54.856Z,15.24
2023-04-27T16:23:24.378Z,15.23
2023-04-27T16:25:53.875Z,15.11
2023-04-27T16:28:22.120Z,15.23
2023-04-27T16:30:51.536Z,15.14
2023-04-27T16:33:21.348Z,15.21
2023-04-27T16:35:50.069Z,15.13
2023-04-27T16:38:18.085Z,15.15
2023-04-27T16:40:46.323Z,15.03
2023-04-27T16:43:15.961Z,14.82
2023-04-27T16:45:44.267Z,14.82
2023-04-27T16:48:12.582Z,14.81
2023-04-27T16:50:41.003Z,14.57
2023-04-27T16:53:10.996Z,14.51
2023-04-27T16:55:39.001Z,14.58
2023-04-27T16:58:08.288Z,14.44
2023-04-27T17:00:38.285Z,14.38
2023-04-27T17:03:06.662Z,14.25
2023-04-27T17:05:35.289Z,14.14
2023-04-27T17:08:05.207Z,14.10
2023-04-27T17:10:36.991Z,14.15
2023-04-27T17:13:05.970Z,14.09
2023-04-27T17:15:34.154Z,14.12
2023-04-27T17:18:05.888Z,14.09
2023-04-27T17:20:33.968Z,14.10
2023-04-27T17:23:02.207Z,14.17
2023-04-27T17:25:30.464Z,14.08
2023-04-27T17:28:00.739Z,13.99
2023-04-27T17:30:29.724Z,14.00
2023-04-27T17:32:57.901Z,14.00
2023-04-27T17:35:27.667Z,13.90
2023-04-27T17:37:56.056Z,13.72
2023-04-27T17:40:24.340Z,13.69
2023-04-27T17:42:54.708Z,13.70
2023-04-27T17:45:23.101Z,13.72
2023-04-27T17:47:51.997Z,13.65
2023-04-27T17:50:20.185Z,13.65
2023-04-27T17:52:51.243Z,13.69
2023-04-27T17:55:19.709Z,13.69
2023-04-27T17:57:47.826Z,13.69
2023-04-27T18:00:18.220Z,13.69
2023-04-27T18:02:48.407Z,13.66
2023-04-27T18:05:16.978Z,13.49
2023-04-27T18:07:46.265Z,13.59
2023-04-27T18:10:15.861Z,13.53
2023-04-27T18:12:44.116Z,13.47
2023-04-27T18:15:12.496Z,13.30
2023-04-27T18:17:40.533Z,13.25
2023-04-27T18:20:10.423Z,13.30
2023-04-27T18:22:40.343Z,13.37
2023-04-27T18:25:10.435Z,13.30
2023-04-27T18:27:40.414Z,13.22
2023-04-27T18:30:09.632Z,13.15
2023-04-27T18:32:38.306Z,13.23
2023-04-27T18:35:07.286Z,13.18
2023-04-27T18:37:35.494Z,13.18
2023-04-27T18:40:07.104Z,13.25
2023-04-27T18:42:35.544Z,13.25
2023-04-27T18:45:05.911Z,13.18
2023-04-27T18:47:34.201Z,13.23
2023-04-27T18:50:02.410Z,13.22
2023-04-27T18:52:30.755Z,13.15
2023-04-27T18:54:59.049Z,13.07
2023-04-27T18:57:27.532Z,12.98
2023-04-27T18:59:56.772Z,12.90
2023-04-27T19:02:26.879Z,12.87
2023-04-27T19:05:11.534Z,12.86
2023-04-27T19:07:41.161Z,12.84
2023-04-27T19:10:10.801Z,12.77
2023-04-27T19:12:39.008Z,12.73
2023-04-27T19:15:08.492Z,12.78
2023-04-27T19:17:38.542Z,12.73
2023-04-27T19:20:08.582Z,12.68
2023-04-27T19:22:37.270Z,12.73
2023-04-27T19:25:06.134Z,12.99
2023-04-27T19:27:34.448Z,13.05
2023-04-27T19:30:04.523Z,13.07
2023-04-27T19:32:34.558Z,13.12
2023-04-27T19:35:04.820Z,13.00
2023-04-27T19:37:33.248Z,13.10
2023-04-27T19:40:02.167Z,13.02
2023-04-27T19:42:31.774Z,12.87
2023-04-27T19:45:01.035Z,12.76
2023-04-27T19:47:29.478Z,12.69
2023-04-27T19:49:58.636Z,12.65
2023-04-27T19:52:29.414Z,12.69
2023-04-27T19:54:57.908Z,12.64
2023-04-27T19:57:27.370Z,12.65
2023-04-27T19:59:55.724Z,12.63
2023-04-27T20:02:24.104Z,12.59
2023-04-27T20:04:55.527Z,12.66
2023-04-27T20:07:23.795Z,12.60
2023-04-27T20:09:58.244Z,12.54
2023-04-27T20:12:47.547Z,12.52
2023-04-27T20:15:15.964Z,12.41
2023-04-27T20:17:45.826Z,12.43
2023-04-27T20:20:13.942Z,12.52
2023-04-27T20:22:42.200Z,12.47
2023-04-27T20:25:15.116Z,12.54
2023-04-27T20:27:43.368Z,12.56
2023-04-27T20:30:12.078Z,12.60
2023-04-27T20:32:40.534Z,12.63
2023-04-27T20:35:11.412Z,12.53
2023-04-27T20:37:42.013Z,12.52
2023-04-27T20:40:14.559Z,12.50
2023-04-27T20:42:43.919Z,12.36
2023-04-27T20:45:13.366Z,12.39
2023-04-27T20:47:41.985Z,12.41
2023-04-27T20:50:13.946Z,12.42
2023-04-27T20:52:42.761Z,12.47
2023-04-27T20:55:12.294Z,12.44
2023-04-27T20:57:40.593Z,12.41
2023-04-27T21:00:10.324Z,12.36
2023-04-27T21:02:38.665Z,12.36
2023-04-27T21:05:07.026Z,12.35
2023-04-27T21:07:35.425Z,12.34
2023-04-27T21:10:06.308Z,12.26
2023-04-27T21:12:36.049Z,12.27
2023-04-27T21:15:04.352Z,12.17
2023-04-27T21:17:32.574Z,12.24
2023-04-27T21:20:00.818Z,12.25
2023-04-27T21:22:28.975Z,12.22
2023-04-27T21:24:57.149Z,12.17
2023-04-27T21:27:25.304Z,12.07
2023-04-27T21:29:54.895Z,12.00
2023-04-27T21:32:22.927Z,11.94
2023-04-27T21:34:51.823Z,11.94
2023-04-27T21:37:19.873Z,11.94
2023-04-27T21:39:48.070Z,11.91
2023-04-27T21:42:16.818Z,11.86
2023-04-27T21:44:44.928Z,11.86
2023-04-27T21:47:32.755Z,11.86
2023-04-27T21:50:00.939Z,11.81
2023-04-27T21:52:29.094Z,11.80
2023-04-27T21:54:59.722Z,11.76
2023-04-27T21:57:28.847Z,11.76
2023-04-27T21:59:56.968Z,11.72
2023-04-27T22:02:26.686Z,11.59
2023-04-27T22:04:54.855Z,11.56
2023-04-27T22:07:24.771Z,11.46
2023-04-27T22:09:53.722Z,11.44
2023-04-27T22:12:21.789Z,11.33
2023-04-27T22:14:49.876Z,11.29
2023-04-27T22:17:18.493Z,11.34
2023-04-27T22:19:47.957Z,11.27
2023-04-27T22:22:16.097Z,11.31
2023-04-27T22:24:44.223Z,11.19
2023-04-27T22:27:12.832Z,11.13
2023-04-27T22:29:41.083Z,11.04
2023-04-27T22:32:09.271Z,11.01
2023-04-27T22:34:38.259Z,10.92
2023-04-27T22:37:10.129Z,11.01
2023-04-27T22:39:38.445Z,10.92
2023-04-27T22:42:06.803Z,10.97
2023-04-27T22:44:34.801Z,10.90
2023-04-27T22:47:04.619Z,10.98
2023-04-27T22:49:34.372Z,10.89
2023-04-27T22:52:03.752Z,10.89
2023-04-27T22:54:33.193Z,10.89
2023-04-27T22:57:02.547Z,10.83
2023-04-27T22:59:30.928Z,10.89
2023-04-27T23:01:59.077Z,10.83
2023-04-27T23:04:29.157Z,10.80
2023-04-27T23:06:59.386Z,10.76
2023-04-27T23:09:27.818Z,10.81
2023-04-27T23:11:58.951Z,10.82
2023-04-27T23:14:27.882Z,10.80
2023-04-27T23:16:56.812Z,10.80
2023-04-27T23:19:24.943Z,10.78
2023-04-27T23:21:53.044Z,10.69
2023-04-27T23:24:21.063Z,10.54
2023-04-27T23:26:49.297Z,10.56
2023-04-27T23:29:19.032Z,10.53
2023-04-27T23:31:47.237Z,10.56
2023-04-27T23:34:16.507Z,10.58
2023-04-27T23:36:44.703Z,10.52
2023-04-27T23:39:12.712Z,10.45
2023-04-27T23:41:41.033Z,10.47
2023-04-27T23:44:09.140Z,10.44
2023-04-27T23:46:38.846Z,10.46
2023-04-27T23:49:07.004Z,10.52
2023-04-27T23:51:35.149Z,10.54
2023-04-27T23:54:03.600Z,10.50
2023-04-27T23:56:31.748Z,10.53
2023-04-27T23:58:59.755Z,10.55
